sensor_id;sensor_type;location;lat;lon;timestamp;temperature;humidity
530;DHT22;251;48.704;9.210;2022-11-15T00:01:09;4.10;99.90
530;DHT22;251;48.704;9.210;2022-11-15T00:03:59;4.10;99.90
530;DHT22;251;48.704;9.210;2022-11-15T00:06:44;4.10;99.90
530;DHT22;251;48.704;9.210;2022-11-15T00:09:30;4.10;99.90
530;DHT22;251;48.704;9.210;2022-11-15T00:12:15;4.20;99.90
530;DHT22;251;48.704;9.210;2022-11-15T00:15:01;4.10;99.90
530;DHT22;251;48.704;9.210;2022-11-15T00:17:48;4.10;99.90
530;DHT22;251;48.704;9.210;2022-11-15T00:20:35;4.20;99.90
530;DHT22;251;48.704;9.210;2022-11-15T00:23:20;4.20;99.90
530;DHT22;251;48.704;9.210;2022-11-15T00:26:06;4.20;99.90
530;DHT22;251;48.704;9.210;2022-11-15T00:28:51;4.20;99.90
530;DHT22;251;48.704;9.210;2022-11-15T00:31:37;4.40;99.90
530;DHT22;251;48.704;9.210;2022-11-15T00:34:22;4.20;99.90
530;DHT22;251;48.704;9.210;2022-11-15T00:37:09;4.40;99.90
530;DHT22;251;48.704;9.210;2022-11-15T00:39:55;4.20;99.90
530;DHT22;251;48.704;9.210;2022-11-15T00:42:40;4.40;99.90
530;DHT22;251;48.704;9.210;2022-11-15T00:45:26;4.30;99.90
530;DHT22;251;48.704;9.210;2022-11-15T00:48:11;4.50;99.90
530;DHT22;251;48.704;9.210;2022-11-15T00:50:57;4.40;99.90
530;DHT22;251;48.704;9.210;2022-11-15T00:53:44;4.30;99.90
530;DHT22;251;48.704;9.210;2022-11-15T00:56:29;4.60;99.90
530;DHT22;251;48.704;9.210;2022-11-15T00:59:14;4.30;99.90
530;DHT22;251;48.704;9.210;2022-11-15T01:02:00;4.50;99.90
530;DHT22;251;48.704;9.210;2022-11-15T01:04:45;4.40;99.90
530;DHT22;251;48.704;9.210;2022-11-15T01:07:30;4.30;99.90
530;DHT22;251;48.704;9.210;2022-11-15T01:10:18;4.40;99.90
530;DHT22;251;48.704;9.210;2022-11-15T01:13:03;4.30;99.90
530;DHT22;251;48.704;9.210;2022-11-15T01:15:49;4.50;99.90
530;DHT22;251;48.704;9.210;2022-11-15T01:18:34;4.40;99.90
530;DHT22;251;48.704;9.210;2022-11-15T01:21:20;4.40;99.90
530;DHT22;251;48.704;9.210;2022-11-15T01:24:06;4.20;99.90
530;DHT22;251;48.704;9.210;2022-11-15T01:26:53;4.40;99.90
530;DHT22;251;48.704;9.210;2022-11-15T01:29:38;4.10;99.90
530;DHT22;251;48.704;9.210;2022-11-15T01:32:23;4.20;99.90
530;DHT22;251;48.704;9.210;2022-11-15T01:35:09;4.20;99.90
530;DHT22;251;48.704;9.210;2022-11-15T01:37:54;4.20;99.90
530;DHT22;251;48.704;9.210;2022-11-15T01:40:39;4.20;99.90
530;DHT22;251;48.704;9.210;2022-11-15T01:43:28;4.20;99.90
530;DHT22;251;48.704;9.210;2022-11-15T01:46:27;4.20;99.90
530;DHT22;251;48.704;9.210;2022-11-15T01:49:16;4.20;99.90
530;DHT22;251;48.704;9.210;2022-11-15T01:52:06;4.20;99.90
530;DHT22;251;48.704;9.210;2022-11-15T01:54:56;4.10;99.90
530;DHT22;251;48.704;9.210;2022-11-15T01:57:46;4.10;99.90
530;DHT22;251;48.704;9.210;2022-11-15T02:00:33;4.10;99.90
530;DHT22;251;48.704;9.210;2022-11-15T02:03:19;3.80;99.90
530;DHT22;251;48.704;9.210;2022-11-15T02:06:06;4.00;99.90
530;DHT22;251;48.704;9.210;2022-11-15T02:08:51;3.80;99.90
530;DHT22;251;48.704;9.210;2022-11-15T02:11:37;3.90;99.90
530;DHT22;251;48.704;9.210;2022-11-15T02:14:24;3.80;99.90
530;DHT22;251;48.704;9.210;2022-11-15T02:17:25;3.80;99.90
530;DHT22;251;48.704;9.210;2022-11-15T02:20:36;4.00;99.90
530;DHT22;251;48.704;9.210;2022-11-15T02:23:57;4.00;99.90
530;DHT22;251;48.704;9.210;2022-11-15T02:30:23;3.50;99.90
530;DHT22;251;48.704;9.210;2022-11-15T02:33:18;3.70;99.90
530;DHT22;251;48.704;9.210;2022-11-15T02:36:09;3.60;99.90
530;DHT22;251;48.704;9.210;2022-11-15T02:39:02;3.60;99.90
530;DHT22;251;48.704;9.210;2022-11-15T02:41:53;3.60;99.90
530;DHT22;251;48.704;9.210;2022-11-15T02:44:43;3.60;99.90
530;DHT22;251;48.704;9.210;2022-11-15T02:47:32;3.60;99.90
530;DHT22;251;48.704;9.210;2022-11-15T02:50:21;3.60;99.90
530;DHT22;251;48.704;9.210;2022-11-15T02:53:08;3.60;99.90
530;DHT22;251;48.704;9.210;2022-11-15T02:55:56;3.40;99.90
530;DHT22;251;48.704;9.210;2022-11-15T02:59:00;3.50;99.90
530;DHT22;251;48.704;9.210;2022-11-15T03:02:02;3.60;99.90
530;DHT22;251;48.704;9.210;2022-11-15T03:04:56;3.40;99.90
530;DHT22;251;48.704;9.210;2022-11-15T03:07:50;3.70;99.90
530;DHT22;251;48.704;9.210;2022-11-15T03:10:44;3.70;99.90
530;DHT22;251;48.704;9.210;2022-11-15T03:13:36;3.70;99.90
530;DHT22;251;48.704;9.210;2022-11-15T03:16:27;3.70;99.90
530;DHT22;251;48.704;9.210;2022-11-15T03:19:19;3.70;99.90
530;DHT22;251;48.704;9.210;2022-11-15T03:22:11;3.50;99.90
530;DHT22;251;48.704;9.210;2022-11-15T03:25:00;3.60;99.90
530;DHT22;251;48.704;9.210;2022-11-15T03:27:51;3.70;99.90
530;DHT22;251;48.704;9.210;2022-11-15T03:30:38;3.50;99.90
530;DHT22;251;48.704;9.210;2022-11-15T03:33:26;3.60;99.90
530;DHT22;251;48.704;9.210;2022-11-15T03:36:13;3.50;99.90
530;DHT22;251;48.704;9.210;2022-11-15T03:39:02;3.60;99.90
530;DHT22;251;48.704;9.210;2022-11-15T03:42:01;3.20;99.90
530;DHT22;251;48.704;9.210;2022-11-15T03:44:53;3.60;99.90
530;DHT22;251;48.704;9.210;2022-11-15T03:47:42;3.50;99.90
530;DHT22;251;48.704;9.210;2022-11-15T03:50:29;3.70;99.90
530;DHT22;251;48.704;9.210;2022-11-15T03:53:14;3.70;99.90
530;DHT22;251;48.704;9.210;2022-11-15T03:56:01;3.50;99.90
530;DHT22;251;48.704;9.210;2022-11-15T03:58:47;3.60;99.90
530;DHT22;251;48.704;9.210;2022-11-15T04:01:32;3.60;99.90
530;DHT22;251;48.704;9.210;2022-11-15T04:04:17;3.60;99.90
530;DHT22;251;48.704;9.210;2022-11-15T04:07:03;3.70;99.90
530;DHT22;251;48.704;9.210;2022-11-15T04:09:48;3.60;99.90
530;DHT22;251;48.704;9.210;2022-11-15T04:12:50;3.60;99.90
530;DHT22;251;48.704;9.210;2022-11-15T04:15:36;3.70;99.90
530;DHT22;251;48.704;9.210;2022-11-15T04:18:22;3.70;99.90
530;DHT22;251;48.704;9.210;2022-11-15T04:21:08;3.70;99.90
530;DHT22;251;48.704;9.210;2022-11-15T04:24:11;3.70;99.90
530;DHT22;251;48.704;9.210;2022-11-15T04:26:57;3.60;99.90
530;DHT22;251;48.704;9.210;2022-11-15T04:29:44;3.60;99.90
530;DHT22;251;48.704;9.210;2022-11-15T04:32:29;3.70;99.90
530;DHT22;251;48.704;9.210;2022-11-15T04:35:14;3.70;99.90
530;DHT22;251;48.704;9.210;2022-11-15T04:38:01;3.60;99.90
530;DHT22;251;48.704;9.210;2022-11-15T04:40:47;3.50;99.90
530;DHT22;251;48.704;9.210;2022-11-15T04:43:33;3.60;99.90
530;DHT22;251;48.704;9.210;2022-11-15T04:46:20;3.60;99.90
530;DHT22;251;48.704;9.210;2022-11-15T04:49:05;3.70;99.90
530;DHT22;251;48.704;9.210;2022-11-15T04:51:51;3.70;99.90
530;DHT22;251;48.704;9.210;2022-11-15T04:54:36;3.60;99.90
530;DHT22;251;48.704;9.210;2022-11-15T04:57:21;3.60;99.90
530;DHT22;251;48.704;9.210;2022-11-15T05:00:10;3.60;99.90
530;DHT22;251;48.704;9.210;2022-11-15T05:02:58;3.60;99.90
530;DHT22;251;48.704;9.210;2022-11-15T05:06:01;3.40;99.90
530;DHT22;251;48.704;9.210;2022-11-15T05:08:46;3.20;99.90
530;DHT22;251;48.704;9.210;2022-11-15T05:11:31;3.60;99.90
530;DHT22;251;48.704;9.210;2022-11-15T05:14:17;3.70;99.90
530;DHT22;251;48.704;9.210;2022-11-15T05:17:02;3.60;99.90
530;DHT22;251;48.704;9.210;2022-11-15T05:19:49;3.30;99.90
530;DHT22;251;48.704;9.210;2022-11-15T05:22:36;3.70;99.90
530;DHT22;251;48.704;9.210;2022-11-15T05:25:21;3.50;99.90
530;DHT22;251;48.704;9.210;2022-11-15T05:28:07;3.40;99.90
530;DHT22;251;48.704;9.210;2022-11-15T05:30:52;3.30;99.90
530;DHT22;251;48.704;9.210;2022-11-15T05:33:39;3.20;99.90
530;DHT22;251;48.704;9.210;2022-11-15T05:36:29;3.40;99.90
530;DHT22;251;48.704;9.210;2022-11-15T05:39:16;3.60;99.90
530;DHT22;251;48.704;9.210;2022-11-15T05:42:05;3.30;99.90
530;DHT22;251;48.704;9.210;2022-11-15T05:44:51;3.20;99.90
530;DHT22;251;48.704;9.210;2022-11-15T05:47:38;3.40;99.90
530;DHT22;251;48.704;9.210;2022-11-15T05:50:24;3.40;99.90
530;DHT22;251;48.704;9.210;2022-11-15T05:53:12;3.30;99.90
530;DHT22;251;48.704;9.210;2022-11-15T05:55:58;3.50;99.90
530;DHT22;251;48.704;9.210;2022-11-15T05:58:43;3.20;99.90
530;DHT22;251;48.704;9.210;2022-11-15T06:01:29;3.40;99.90
530;DHT22;251;48.704;9.210;2022-11-15T06:04:15;3.40;99.90
530;DHT22;251;48.704;9.210;2022-11-15T06:07:01;3.40;99.90
530;DHT22;251;48.704;9.210;2022-11-15T06:09:47;3.30;99.90
530;DHT22;251;48.704;9.210;2022-11-15T06:12:33;3.30;99.90
530;DHT22;251;48.704;9.210;2022-11-15T06:15:18;3.40;99.90
530;DHT22;251;48.704;9.210;2022-11-15T06:18:04;3.40;99.90
530;DHT22;251;48.704;9.210;2022-11-15T06:20:49;3.30;99.90
530;DHT22;251;48.704;9.210;2022-11-15T06:23:35;3.30;99.90
530;DHT22;251;48.704;9.210;2022-11-15T06:26:21;3.10;99.90
530;DHT22;251;48.704;9.210;2022-11-15T06:29:07;3.30;99.90
530;DHT22;251;48.704;9.210;2022-11-15T06:31:53;3.30;99.90
530;DHT22;251;48.704;9.210;2022-11-15T06:34:38;3.20;99.90
530;DHT22;251;48.704;9.210;2022-11-15T06:37:23;3.40;99.90
530;DHT22;251;48.704;9.210;2022-11-15T06:40:10;3.30;99.90
530;DHT22;251;48.704;9.210;2022-11-15T06:42:58;3.30;99.90
530;DHT22;251;48.704;9.210;2022-11-15T06:45:44;3.30;99.90
530;DHT22;251;48.704;9.210;2022-11-15T06:48:30;3.20;99.90
530;DHT22;251;48.704;9.210;2022-11-15T06:51:16;3.30;99.90
530;DHT22;251;48.704;9.210;2022-11-15T06:54:02;3.40;99.90
530;DHT22;251;48.704;9.210;2022-11-15T06:56:47;3.40;99.90
530;DHT22;251;48.704;9.210;2022-11-15T06:59:34;3.40;99.90
530;DHT22;251;48.704;9.210;2022-11-15T07:02:19;3.40;99.90
530;DHT22;251;48.704;9.210;2022-11-15T07:05:06;3.40;99.90
530;DHT22;251;48.704;9.210;2022-11-15T07:07:52;3.40;99.90
530;DHT22;251;48.704;9.210;2022-11-15T07:10:37;3.40;99.90
530;DHT22;251;48.704;9.210;2022-11-15T07:13:24;3.40;99.90
530;DHT22;251;48.704;9.210;2022-11-15T07:16:11;3.40;99.90
530;DHT22;251;48.704;9.210;2022-11-15T07:18:56;3.60;99.90
530;DHT22;251;48.704;9.210;2022-11-15T07:21:42;3.70;99.90
530;DHT22;251;48.704;9.210;2022-11-15T07:24:28;3.60;99.90
530;DHT22;251;48.704;9.210;2022-11-15T07:27:13;3.50;99.90
530;DHT22;251;48.704;9.210;2022-11-15T07:29:59;3.60;99.90
530;DHT22;251;48.704;9.210;2022-11-15T07:32:45;3.60;99.90
530;DHT22;251;48.704;9.210;2022-11-15T07:35:32;3.70;99.90
530;DHT22;251;48.704;9.210;2022-11-15T07:38:17;3.60;99.90
530;DHT22;251;48.704;9.210;2022-11-15T07:41:05;3.60;99.90
530;DHT22;251;48.704;9.210;2022-11-15T07:43:51;3.80;99.90
530;DHT22;251;48.704;9.210;2022-11-15T07:46:36;3.90;99.90
530;DHT22;251;48.704;9.210;2022-11-15T07:49:24;3.90;99.90
530;DHT22;251;48.704;9.210;2022-11-15T07:52:09;3.90;99.90
530;DHT22;251;48.704;9.210;2022-11-15T07:54:55;4.10;99.90
530;DHT22;251;48.704;9.210;2022-11-15T07:57:40;4.10;99.90
530;DHT22;251;48.704;9.210;2022-11-15T08:00:25;4.10;99.90
530;DHT22;251;48.704;9.210;2022-11-15T08:03:12;4.40;99.90
530;DHT22;251;48.704;9.210;2022-11-15T08:06:00;4.30;99.90
530;DHT22;251;48.704;9.210;2022-11-15T08:08:46;4.40;99.90
530;DHT22;251;48.704;9.210;2022-11-15T08:11:32;4.40;99.90
530;DHT22;251;48.704;9.210;2022-11-15T08:14:17;4.90;99.90
530;DHT22;251;48.704;9.210;2022-11-15T08:17:03;5.00;99.90
530;DHT22;251;48.704;9.210;2022-11-15T08:19:48;5.10;99.90
530;DHT22;251;48.704;9.210;2022-11-15T08:22:35;5.00;99.90
530;DHT22;251;48.704;9.210;2022-11-15T08:25:21;5.00;99.90
530;DHT22;251;48.704;9.210;2022-11-15T08:28:08;5.00;99.90
530;DHT22;251;48.704;9.210;2022-11-15T08:30:54;5.50;99.90
530;DHT22;251;48.704;9.210;2022-11-15T08:33:40;5.30;99.90
530;DHT22;251;48.704;9.210;2022-11-15T08:36:25;5.50;99.90
530;DHT22;251;48.704;9.210;2022-11-15T08:39:12;5.80;99.90
530;DHT22;251;48.704;9.210;2022-11-15T08:41:58;5.80;99.90
530;DHT22;251;48.704;9.210;2022-11-15T08:44:44;5.90;99.90
530;DHT22;251;48.704;9.210;2022-11-15T08:47:29;5.80;99.90
530;DHT22;251;48.704;9.210;2022-11-15T08:50:15;5.90;99.90
530;DHT22;251;48.704;9.210;2022-11-15T08:53:05;5.90;99.90
530;DHT22;251;48.704;9.210;2022-11-15T08:55:52;6.20;99.90
530;DHT22;251;48.704;9.210;2022-11-15T08:58:38;6.20;99.90
530;DHT22;251;48.704;9.210;2022-11-15T09:01:23;6.20;99.90
530;DHT22;251;48.704;9.210;2022-11-15T09:04:09;6.40;99.90
530;DHT22;251;48.704;9.210;2022-11-15T09:06:54;6.50;99.90
530;DHT22;251;48.704;9.210;2022-11-15T09:09:40;6.40;99.90
530;DHT22;251;48.704;9.210;2022-11-15T09:12:26;6.70;99.90
530;DHT22;251;48.704;9.210;2022-11-15T09:15:12;6.80;99.90
530;DHT22;251;48.704;9.210;2022-11-15T09:17:58;6.80;99.90
530;DHT22;251;48.704;9.210;2022-11-15T09:20:44;6.80;99.90
530;DHT22;251;48.704;9.210;2022-11-15T09:23:29;7.10;99.90
530;DHT22;251;48.704;9.210;2022-11-15T09:26:15;7.10;99.90
530;DHT22;251;48.704;9.210;2022-11-15T09:29:02;7.20;99.90
530;DHT22;251;48.704;9.210;2022-11-15T09:31:47;7.30;99.90
530;DHT22;251;48.704;9.210;2022-11-15T09:34:33;7.40;99.90
530;DHT22;251;48.704;9.210;2022-11-15T09:37:18;7.60;99.90
530;DHT22;251;48.704;9.210;2022-11-15T09:40:05;7.50;99.90
530;DHT22;251;48.704;9.210;2022-11-15T09:43:11;7.70;99.90
530;DHT22;251;48.704;9.210;2022-11-15T09:46:12;7.70;99.90
530;DHT22;251;48.704;9.210;2022-11-15T09:49:02;7.80;99.90
530;DHT22;251;48.704;9.210;2022-11-15T09:51:34;8.10;99.90
530;DHT22;251;48.704;9.210;2022-11-15T09:54:26;7.80;99.90
530;DHT22;251;48.704;9.210;2022-11-15T09:56:56;7.90;99.90
530;DHT22;251;48.704;9.210;2022-11-15T09:59:32;8.10;99.90
530;DHT22;251;48.704;9.210;2022-11-15T10:02:13;8.30;99.90
530;DHT22;251;48.704;9.210;2022-11-15T10:04:42;8.30;99.90
530;DHT22;251;48.704;9.210;2022-11-15T10:07:14;8.20;99.90
530;DHT22;251;48.704;9.210;2022-11-15T10:09:47;8.20;99.90
530;DHT22;251;48.704;9.210;2022-11-15T10:12:15;8.70;99.90
530;DHT22;251;48.704;9.210;2022-11-15T10:14:43;8.70;99.90
530;DHT22;251;48.704;9.210;2022-11-15T10:17:44;8.80;99.90
530;DHT22;251;48.704;9.210;2022-11-15T10:20:19;8.90;99.90
530;DHT22;251;48.704;9.210;2022-11-15T10:22:49;9.00;99.90
530;DHT22;251;48.704;9.210;2022-11-15T10:25:19;9.00;99.90
530;DHT22;251;48.704;9.210;2022-11-15T10:27:53;9.00;99.90
530;DHT22;251;48.704;9.210;2022-11-15T10:30:21;9.10;99.90
530;DHT22;251;48.704;9.210;2022-11-15T10:32:49;9.10;99.90
530;DHT22;251;48.704;9.210;2022-11-15T10:35:23;9.20;99.90
530;DHT22;251;48.704;9.210;2022-11-15T10:37:50;9.30;99.90
530;DHT22;251;48.704;9.210;2022-11-15T10:40:20;9.50;99.90
530;DHT22;251;48.704;9.210;2022-11-15T10:42:47;9.60;99.90
530;DHT22;251;48.704;9.210;2022-11-15T10:45:26;9.50;99.90
530;DHT22;251;48.704;9.210;2022-11-15T10:48:20;9.30;99.90
530;DHT22;251;48.704;9.210;2022-11-15T10:50:48;9.70;99.90
530;DHT22;251;48.704;9.210;2022-11-15T10:53:19;9.70;99.90
530;DHT22;251;48.704;9.210;2022-11-15T10:55:48;9.70;99.90
530;DHT22;251;48.704;9.210;2022-11-15T10:58:22;9.70;99.90
530;DHT22;251;48.704;9.210;2022-11-15T11:00:54;9.70;99.90
530;DHT22;251;48.704;9.210;2022-11-15T11:03:28;9.90;99.90
530;DHT22;251;48.704;9.210;2022-11-15T11:06:04;10.10;99.90
530;DHT22;251;48.704;9.210;2022-11-15T11:08:31;9.80;99.90
530;DHT22;251;48.704;9.210;2022-11-15T11:11:01;9.90;99.90
530;DHT22;251;48.704;9.210;2022-11-15T11:13:30;9.80;99.90
530;DHT22;251;48.704;9.210;2022-11-15T11:18:57;9.90;99.90
530;DHT22;251;48.704;9.210;2022-11-15T11:21:39;10.00;99.90
530;DHT22;251;48.704;9.210;2022-11-15T11:24:12;10.20;99.90
530;DHT22;251;48.704;9.210;2022-11-15T11:26:46;10.20;99.90
530;DHT22;251;48.704;9.210;2022-11-15T11:29:28;10.40;99.90
530;DHT22;251;48.704;9.210;2022-11-15T11:32:05;10.50;99.90
530;DHT22;251;48.704;9.210;2022-11-15T11:34:47;10.10;99.90
530;DHT22;251;48.704;9.210;2022-11-15T11:37:23;10.10;99.90
530;DHT22;251;48.704;9.210;2022-11-15T11:40:03;10.20;99.90
530;DHT22;251;48.704;9.210;2022-11-15T11:42:36;10.20;99.90
530;DHT22;251;48.704;9.210;2022-11-15T11:45:15;10.60;99.90
530;DHT22;251;48.704;9.210;2022-11-15T11:47:47;10.20;99.90
530;DHT22;251;48.704;9.210;2022-11-15T11:50:19;10.30;99.90
530;DHT22;251;48.704;9.210;2022-11-15T11:52:57;10.50;99.90
530;DHT22;251;48.704;9.210;2022-11-15T11:55:28;10.50;99.90
530;DHT22;251;48.704;9.210;2022-11-15T11:58:02;10.90;99.90
530;DHT22;251;48.704;9.210;2022-11-15T12:00:33;11.00;99.90
530;DHT22;251;48.704;9.210;2022-11-15T12:03:07;10.50;99.90
530;DHT22;251;48.704;9.210;2022-11-15T12:05:39;10.80;99.90
530;DHT22;251;48.704;9.210;2022-11-15T12:08:22;10.90;99.90
530;DHT22;251;48.704;9.210;2022-11-15T12:10:53;10.90;98.10
530;DHT22;251;48.704;9.210;2022-11-15T12:13:26;11.00;97.90
530;DHT22;251;48.704;9.210;2022-11-15T12:16:04;11.00;97.80
530;DHT22;251;48.704;9.210;2022-11-15T12:18:33;10.90;97.60
530;DHT22;251;48.704;9.210;2022-11-15T12:21:05;11.10;97.50
530;DHT22;251;48.704;9.210;2022-11-15T12:23:38;11.00;97.60
530;DHT22;251;48.704;9.210;2022-11-15T12:26:10;11.10;97.60
530;DHT22;251;48.704;9.210;2022-11-15T12:28:40;11.20;98.10
530;DHT22;251;48.704;9.210;2022-11-15T12:31:12;11.20;97.30
530;DHT22;251;48.704;9.210;2022-11-15T12:33:44;10.90;97.40
530;DHT22;251;48.704;9.210;2022-11-15T12:36:30;11.10;96.80
530;DHT22;251;48.704;9.210;2022-11-15T12:38:59;10.90;96.60
530;DHT22;251;48.704;9.210;2022-11-15T12:41:27;11.20;96.70
530;DHT22;251;48.704;9.210;2022-11-15T12:43:55;11.30;97.10
530;DHT22;251;48.704;9.210;2022-11-15T12:46:58;11.20;97.20
530;DHT22;251;48.704;9.210;2022-11-15T12:49:47;11.20;97.30
530;DHT22;251;48.704;9.210;2022-11-15T12:52:15;11.20;97.50
530;DHT22;251;48.704;9.210;2022-11-15T12:55:00;11.20;97.20
530;DHT22;251;48.704;9.210;2022-11-15T12:57:37;10.90;96.70
530;DHT22;251;48.704;9.210;2022-11-15T13:03:25;11.20;97.80
530;DHT22;251;48.704;9.210;2022-11-15T13:06:06;11.20;98.70
530;DHT22;251;48.704;9.210;2022-11-15T13:08:46;11.30;98.10
530;DHT22;251;48.704;9.210;2022-11-15T13:11:51;11.10;97.60
530;DHT22;251;48.704;9.210;2022-11-15T13:17:39;11.30;97.70
530;DHT22;251;48.704;9.210;2022-11-15T13:20:22;11.10;97.50
530;DHT22;251;48.704;9.210;2022-11-15T13:22:51;11.10;97.20
530;DHT22;251;48.704;9.210;2022-11-15T13:25:39;11.20;97.30
530;DHT22;251;48.704;9.210;2022-11-15T13:28:17;11.20;96.90
530;DHT22;251;48.704;9.210;2022-11-15T13:30:50;11.00;96.40
530;DHT22;251;48.704;9.210;2022-11-15T13:33:19;11.30;97.00
530;DHT22;251;48.704;9.210;2022-11-15T13:35:49;11.00;96.50
530;DHT22;251;48.704;9.210;2022-11-15T13:38:19;11.40;96.50
530;DHT22;251;48.704;9.210;2022-11-15T13:40:53;11.40;95.80
530;DHT22;251;48.704;9.210;2022-11-15T13:43:28;11.30;95.50
530;DHT22;251;48.704;9.210;2022-11-15T13:46:12;11.10;95.40
530;DHT22;251;48.704;9.210;2022-11-15T13:48:39;11.10;95.40
530;DHT22;251;48.704;9.210;2022-11-15T13:51:13;11.20;95.30
530;DHT22;251;48.704;9.210;2022-11-15T13:53:44;11.30;95.10
530;DHT22;251;48.704;9.210;2022-11-15T13:56:16;11.30;95.20
530;DHT22;251;48.704;9.210;2022-11-15T13:58:43;11.30;95.20
530;DHT22;251;48.704;9.210;2022-11-15T14:01:16;10.90;94.90
530;DHT22;251;48.704;9.210;2022-11-15T14:03:51;10.90;94.70
530;DHT22;251;48.704;9.210;2022-11-15T14:06:21;11.30;94.60
530;DHT22;251;48.704;9.210;2022-11-15T14:09:01;11.20;94.80
530;DHT22;251;48.704;9.210;2022-11-15T14:11:29;11.10;95.00
530;DHT22;251;48.704;9.210;2022-11-15T14:14:10;11.00;95.20
530;DHT22;251;48.704;9.210;2022-11-15T14:16:39;11.30;95.40
530;DHT22;251;48.704;9.210;2022-11-15T14:19:10;10.90;94.90
530;DHT22;251;48.704;9.210;2022-11-15T14:21:37;11.30;95.10
530;DHT22;251;48.704;9.210;2022-11-15T14:24:30;11.20;94.70
530;DHT22;251;48.704;9.210;2022-11-15T14:26:57;10.90;94.70
530;DHT22;251;48.704;9.210;2022-11-15T14:29:41;10.90;94.90
530;DHT22;251;48.704;9.210;2022-11-15T14:32:14;11.30;95.60
530;DHT22;251;48.704;9.210;2022-11-15T14:34:41;11.10;96.30
530;DHT22;251;48.704;9.210;2022-11-15T14:37:19;10.90;96.50
530;DHT22;251;48.704;9.210;2022-11-15T14:39:48;10.90;97.10
530;DHT22;251;48.704;9.210;2022-11-15T14:42:15;11.20;97.80
530;DHT22;251;48.704;9.210;2022-11-15T14:44:42;10.90;97.80
530;DHT22;251;48.704;9.210;2022-11-15T14:47:09;11.20;97.70
530;DHT22;251;48.704;9.210;2022-11-15T14:49:36;10.90;97.50
530;DHT22;251;48.704;9.210;2022-11-15T14:52:07;10.90;97.70
530;DHT22;251;48.704;9.210;2022-11-15T14:54:38;11.20;98.20
530;DHT22;251;48.704;9.210;2022-11-15T14:57:06;10.80;98.40
530;DHT22;251;48.704;9.210;2022-11-15T14:59:33;11.00;98.70
530;DHT22;251;48.704;9.210;2022-11-15T15:02:00;10.80;98.80
530;DHT22;251;48.704;9.210;2022-11-15T15:04:26;10.60;98.90
530;DHT22;251;48.704;9.210;2022-11-15T15:06:53;10.90;98.20
530;DHT22;251;48.704;9.210;2022-11-15T15:09:20;10.80;97.80
530;DHT22;251;48.704;9.210;2022-11-15T15:11:47;10.80;97.60
530;DHT22;251;48.704;9.210;2022-11-15T15:14:15;10.50;97.50
530;DHT22;251;48.704;9.210;2022-11-15T15:16:42;10.60;97.20
530;DHT22;251;48.704;9.210;2022-11-15T15:19:08;10.80;97.70
530;DHT22;251;48.704;9.210;2022-11-15T15:21:35;10.70;97.30
530;DHT22;251;48.704;9.210;2022-11-15T15:24:02;10.60;97.90
530;DHT22;251;48.704;9.210;2022-11-15T15:26:29;10.60;98.60
530;DHT22;251;48.704;9.210;2022-11-15T15:28:59;10.50;99.20
530;DHT22;251;48.704;9.210;2022-11-15T15:31:27;10.50;99.60
530;DHT22;251;48.704;9.210;2022-11-15T15:33:55;10.60;99.90
530;DHT22;251;48.704;9.210;2022-11-15T15:36:21;10.70;99.90
530;DHT22;251;48.704;9.210;2022-11-15T15:38:48;10.50;99.90
530;DHT22;251;48.704;9.210;2022-11-15T15:41:16;10.60;99.90
530;DHT22;251;48.704;9.210;2022-11-15T15:43:43;10.60;99.90
530;DHT22;251;48.704;9.210;2022-11-15T15:46:12;10.50;99.90
530;DHT22;251;48.704;9.210;2022-11-15T15:48:41;10.70;99.90
530;DHT22;251;48.704;9.210;2022-11-15T15:51:08;10.20;99.90
530;DHT22;251;48.704;9.210;2022-11-15T15:53:36;10.50;99.90
530;DHT22;251;48.704;9.210;2022-11-15T15:56:02;10.20;99.90
530;DHT22;251;48.704;9.210;2022-11-15T15:58:29;10.20;99.90
530;DHT22;251;48.704;9.210;2022-11-15T16:00:57;10.20;99.90
530;DHT22;251;48.704;9.210;2022-11-15T16:03:24;10.10;99.90
530;DHT22;251;48.704;9.210;2022-11-15T16:05:52;10.20;99.90
530;DHT22;251;48.704;9.210;2022-11-15T16:08:20;10.30;99.90
530;DHT22;251;48.704;9.210;2022-11-15T16:10:48;10.30;99.90
530;DHT22;251;48.704;9.210;2022-11-15T16:13:15;10.10;99.90
530;DHT22;251;48.704;9.210;2022-11-15T16:15:43;10.30;99.90
530;DHT22;251;48.704;9.210;2022-11-15T16:18:15;10.00;99.90
530;DHT22;251;48.704;9.210;2022-11-15T16:20:43;10.40;99.90
530;DHT22;251;48.704;9.210;2022-11-15T16:23:13;10.10;99.90
530;DHT22;251;48.704;9.210;2022-11-15T16:25:43;10.20;99.90
530;DHT22;251;48.704;9.210;2022-11-15T16:28:19;10.00;99.90
530;DHT22;251;48.704;9.210;2022-11-15T16:30:46;10.10;99.90
530;DHT22;251;48.704;9.210;2022-11-15T16:33:13;10.20;99.90
530;DHT22;251;48.704;9.210;2022-11-15T16:35:39;10.20;99.90
530;DHT22;251;48.704;9.210;2022-11-15T16:38:10;9.90;99.90
530;DHT22;251;48.704;9.210;2022-11-15T16:40:39;9.70;99.90
530;DHT22;251;48.704;9.210;2022-11-15T16:43:06;9.80;99.90
530;DHT22;251;48.704;9.210;2022-11-15T16:45:34;9.90;99.90
530;DHT22;251;48.704;9.210;2022-11-15T16:48:01;9.70;99.90
530;DHT22;251;48.704;9.210;2022-11-15T16:50:30;9.90;99.90
530;DHT22;251;48.704;9.210;2022-11-15T16:52:59;9.80;99.90
530;DHT22;251;48.704;9.210;2022-11-15T16:55:28;10.00;99.90
530;DHT22;251;48.704;9.210;2022-11-15T16:57:56;9.90;99.90
530;DHT22;251;48.704;9.210;2022-11-15T17:00:24;9.80;99.90
530;DHT22;251;48.704;9.210;2022-11-15T17:02:52;9.90;99.90
530;DHT22;251;48.704;9.210;2022-11-15T17:05:20;9.70;99.90
530;DHT22;251;48.704;9.210;2022-11-15T17:07:48;9.90;99.90
530;DHT22;251;48.704;9.210;2022-11-15T17:10:18;9.80;99.90
530;DHT22;251;48.704;9.210;2022-11-15T17:12:47;9.80;99.90
530;DHT22;251;48.704;9.210;2022-11-15T17:15:14;9.90;99.90
530;DHT22;251;48.704;9.210;2022-11-15T17:17:42;9.70;99.90
530;DHT22;251;48.704;9.210;2022-11-15T17:20:13;9.90;99.90
530;DHT22;251;48.704;9.210;2022-11-15T17:22:41;9.80;99.90
530;DHT22;251;48.704;9.210;2022-11-15T17:25:09;9.60;99.90
530;DHT22;251;48.704;9.210;2022-11-15T17:27:36;9.90;99.90
530;DHT22;251;48.704;9.210;2022-11-15T17:30:05;9.90;99.90
530;DHT22;251;48.704;9.210;2022-11-15T17:32:34;9.50;99.90
530;DHT22;251;48.704;9.210;2022-11-15T17:35:02;9.80;99.90
530;DHT22;251;48.704;9.210;2022-11-15T17:37:28;9.30;99.90
530;DHT22;251;48.704;9.210;2022-11-15T17:39:55;9.70;99.90
530;DHT22;251;48.704;9.210;2022-11-15T17:42:22;9.40;99.90
530;DHT22;251;48.704;9.210;2022-11-15T17:44:49;9.50;99.90
530;DHT22;251;48.704;9.210;2022-11-15T17:47:17;9.40;99.90
530;DHT22;251;48.704;9.210;2022-11-15T17:49:44;9.60;99.90
530;DHT22;251;48.704;9.210;2022-11-15T17:52:10;9.50;99.90
530;DHT22;251;48.704;9.210;2022-11-15T17:54:37;9.30;99.90
530;DHT22;251;48.704;9.210;2022-11-15T17:57:04;9.50;99.90
530;DHT22;251;48.704;9.210;2022-11-15T17:59:31;9.30;99.90
530;DHT22;251;48.704;9.210;2022-11-15T18:01:58;9.40;99.90
530;DHT22;251;48.704;9.210;2022-11-15T18:04:26;9.60;99.90
530;DHT22;251;48.704;9.210;2022-11-15T18:06:54;9.60;99.90
530;DHT22;251;48.704;9.210;2022-11-15T18:09:22;9.50;99.90
530;DHT22;251;48.704;9.210;2022-11-15T18:11:51;9.50;99.90
530;DHT22;251;48.704;9.210;2022-11-15T18:14:19;9.50;99.90
530;DHT22;251;48.704;9.210;2022-11-15T18:16:46;9.50;99.90
530;DHT22;251;48.704;9.210;2022-11-15T18:19:13;9.40;99.90
530;DHT22;251;48.704;9.210;2022-11-15T18:21:42;9.40;99.90
530;DHT22;251;48.704;9.210;2022-11-15T18:24:21;9.50;99.90